CLX50 OPKC-UCFM
Flight info
| Callsign | CLX50 |
|---|---|
| Flight time | N/A |
| Altitude | 37000 |
| Route | BADUL1D BADUL B466 NH Z302 PS P500 ATROL/N0494F380 P500 GERRY/N0494F370 P500 MOTMO/N0495F380 P500 FIRUZ/K0917F380 G500 POMIR/K0915F370 B496 ASMAN L142 OSH M34 GASTA JETTO1 |
| Aircraft | B748/H-V/N |
Departure
| Time | 2026-05-04 18:21 |
|---|---|
| Airport | Jinnah International Airport (OPKC) |
Arrival
| Time | N/A |
|---|---|
| Airport | Manas International Airport (UCFM) |
| Time | Latitude | Longitude | Altitude | Speed | Heading |
|---|---|---|---|---|---|
| 2026-05-04 18:01 | 24.90191 | 67.16006 | 97 ft | 0 kts | 162° |
| 2026-05-04 18:10 | 24.90192 | 67.16005 | 58 ft | 2 kts | 162° |
| 2026-05-04 18:10 | 24.90208 | 67.16000 | 98 ft | 2 kts | 162° |
| 2026-05-04 18:11 | 24.90224 | 67.15994 | 98 ft | 2 kts | 162° |
| 2026-05-04 18:11 | 24.90241 | 67.15989 | 95 ft | 2 kts | 162° |
| 2026-05-04 18:11 | 24.90257 | 67.15983 | 96 ft | 2 kts | 162° |
| 2026-05-04 18:11 | 24.90273 | 67.15978 | 96 ft | 2 kts | 162° |
| 2026-05-04 18:12 | 24.90290 | 67.15972 | 96 ft | 2 kts | 162° |
| 2026-05-04 18:12 | 24.90299 | 67.15969 | 97 ft | 0 kts | 162° |
| 2026-05-04 18:14 | 24.90292 | 67.15979 | 95 ft | 3 kts | 125° |
| 2026-05-04 18:15 | 24.90310 | 67.16048 | 101 ft | 0 kts | 71° |
| 2026-05-04 18:15 | 24.90310 | 67.16049 | 101 ft | 1 kts | 71° |
| 2026-05-04 18:15 | 24.90323 | 67.16089 | 99 ft | 10 kts | 73° |
| 2026-05-04 18:16 | 24.90352 | 67.16199 | 99 ft | 20 kts | 73° |
| 2026-05-04 18:16 | 24.90398 | 67.16376 | 101 ft | 28 kts | 77° |
| 2026-05-04 18:16 | 24.90458 | 67.16612 | 103 ft | 36 kts | 76° |
| 2026-05-04 18:17 | 24.90532 | 67.16921 | 104 ft | 9 kts | 75° |
| 2026-05-04 18:17 | 24.90548 | 67.16983 | 102 ft | 8 kts | 75° |
| 2026-05-04 18:17 | 24.90578 | 67.17091 | 104 ft | 8 kts | 75° |
| 2026-05-04 18:18 | 24.90589 | 67.17137 | 106 ft | 10 kts | 75° |
| 2026-05-04 18:18 | 24.90609 | 67.17220 | 104 ft | 13 kts | 75° |
| 2026-05-04 18:18 | 24.90646 | 67.17353 | 103 ft | 12 kts | 66° |
| 2026-05-04 18:18 | 24.90678 | 67.17401 | 105 ft | 11 kts | 45° |
| 2026-05-04 18:19 | 24.90808 | 67.17475 | 104 ft | 8 kts | 356° |
| 2026-05-04 18:19 | 24.90836 | 67.17457 | 106 ft | 3 kts | 313° |
| 2026-05-04 18:19 | 24.90843 | 67.17441 | 105 ft | 2 kts | 290° |
| 2026-05-04 18:20 | 24.90848 | 67.17407 | 106 ft | 6 kts | 271° |
| 2026-05-04 18:20 | 24.90838 | 67.17349 | 105 ft | 10 kts | 261° |
| 2026-05-04 18:20 | 24.90818 | 67.17255 | 105 ft | 17 kts | 254° |
| 2026-05-04 18:20 | 24.90721 | 67.16882 | 104 ft | 96 kts | 256° |
| 2026-05-04 18:21 | 24.90468 | 67.15843 | 98 ft | 180 kts | 256° |
| 2026-05-04 18:21 | 24.90006 | 67.14337 | 356 ft | 220 kts | 244° |
| 2026-05-04 18:21 | 24.89611 | 67.12752 | 1225 ft | 221 kts | 282° |
| 2026-05-04 18:21 | 24.90976 | 67.12268 | 1055 ft | 295 kts | 37° |
| 2026-05-04 18:22 | 24.92722 | 67.13025 | 945 ft | 259 kts | 1° |